sensor_id;sensor_type;location;lat;lon;timestamp;P1;durP1;ratioP1;P2;durP2;ratioP2
47147;SDS011;32900;47.498;8.738;2022-08-20T00:00:45;19.10;;;12.80;;
47147;SDS011;32900;47.498;8.738;2022-08-20T00:03:22;12.70;;;11.20;;
47147;SDS011;32900;47.498;8.738;2022-08-20T00:05:55;15.65;;;12.00;;
47147;SDS011;32900;47.498;8.738;2022-08-20T00:08:27;15.82;;;12.50;;
47147;SDS011;32900;47.498;8.738;2022-08-20T00:10:54;16.20;;;12.68;;
47147;SDS011;32900;47.498;8.738;2022-08-20T00:13:30;16.77;;;12.55;;
47147;SDS011;32900;47.498;8.738;2022-08-20T00:16:04;19.80;;;14.43;;
47147;SDS011;32900;47.498;8.738;2022-08-20T00:18:32;16.42;;;12.38;;
47147;SDS011;32900;47.498;8.738;2022-08-20T00:21:02;16.45;;;13.88;;
47147;SDS011;32900;47.498;8.738;2022-08-20T00:23:37;18.33;;;12.98;;
47147;SDS011;32900;47.498;8.738;2022-08-20T00:26:09;16.65;;;13.60;;
47147;SDS011;32900;47.498;8.738;2022-08-20T00:28:37;16.13;;;12.90;;
47147;SDS011;32900;47.498;8.738;2022-08-20T00:31:05;15.93;;;11.77;;
47147;SDS011;32900;47.498;8.738;2022-08-20T00:33:35;17.55;;;12.15;;
47147;SDS011;32900;47.498;8.738;2022-08-20T00:36:03;15.63;;;12.35;;
47147;SDS011;32900;47.498;8.738;2022-08-20T00:38:36;14.07;;;12.23;;
47147;SDS011;32900;47.498;8.738;2022-08-20T00:41:05;16.55;;;13.07;;
47147;SDS011;32900;47.498;8.738;2022-08-20T00:46:08;17.42;;;13.82;;
47147;SDS011;32900;47.498;8.738;2022-08-20T00:48:36;17.10;;;13.65;;
47147;SDS011;32900;47.498;8.738;2022-08-20T00:51:08;15.60;;;12.23;;
47147;SDS011;32900;47.498;8.738;2022-08-20T00:56:44;18.60;;;12.63;;
47147;SDS011;32900;47.498;8.738;2022-08-20T00:59:16;14.10;;;12.18;;
47147;SDS011;32900;47.498;8.738;2022-08-20T01:01:48;14.68;;;12.02;;
47147;SDS011;32900;47.498;8.738;2022-08-20T01:04:21;14.80;;;11.82;;
47147;SDS011;32900;47.498;8.738;2022-08-20T01:06:49;17.77;;;12.10;;
47147;SDS011;32900;47.498;8.738;2022-08-20T01:09:16;16.23;;;13.65;;
47147;SDS011;32900;47.498;8.738;2022-08-20T01:12:04;16.48;;;12.60;;
47147;SDS011;32900;47.498;8.738;2022-08-20T01:14:32;17.55;;;13.75;;
47147;SDS011;32900;47.498;8.738;2022-08-20T01:17:00;15.65;;;12.35;;
47147;SDS011;32900;47.498;8.738;2022-08-20T01:19:36;17.60;;;12.48;;
47147;SDS011;32900;47.498;8.738;2022-08-20T01:22:06;15.52;;;12.25;;
47147;SDS011;32900;47.498;8.738;2022-08-20T01:25:02;19.73;;;14.60;;
47147;SDS011;32900;47.498;8.738;2022-08-20T01:27:33;16.75;;;13.00;;
47147;SDS011;32900;47.498;8.738;2022-08-20T01:30:08;15.75;;;13.07;;
47147;SDS011;32900;47.498;8.738;2022-08-20T01:32:35;19.80;;;14.13;;
47147;SDS011;32900;47.498;8.738;2022-08-20T01:35:03;20.00;;;13.77;;
47147;SDS011;32900;47.498;8.738;2022-08-20T01:37:30;19.15;;;14.43;;
47147;SDS011;32900;47.498;8.738;2022-08-20T01:39:57;17.38;;;14.55;;
47147;SDS011;32900;47.498;8.738;2022-08-20T01:42:36;15.63;;;12.63;;
47147;SDS011;32900;47.498;8.738;2022-08-20T01:45:24;17.67;;;13.75;;
47147;SDS011;32900;47.498;8.738;2022-08-20T01:47:55;15.52;;;12.18;;
47147;SDS011;32900;47.498;8.738;2022-08-20T01:50:23;14.85;;;11.98;;
47147;SDS011;32900;47.498;8.738;2022-08-20T01:52:55;15.18;;;11.70;;
47147;SDS011;32900;47.498;8.738;2022-08-20T01:55:26;13.70;;;10.63;;
47147;SDS011;32900;47.498;8.738;2022-08-20T01:57:53;17.25;;;11.52;;
47147;SDS011;32900;47.498;8.738;2022-08-20T02:00:20;19.80;;;11.80;;
47147;SDS011;32900;47.498;8.738;2022-08-20T02:02:49;14.23;;;11.23;;
47147;SDS011;32900;47.498;8.738;2022-08-20T02:05:17;14.75;;;11.35;;
47147;SDS011;32900;47.498;8.738;2022-08-20T02:07:45;13.10;;;11.07;;
47147;SDS011;32900;47.498;8.738;2022-08-20T02:10:12;15.02;;;11.65;;
47147;SDS011;32900;47.498;8.738;2022-08-20T02:12:40;14.63;;;10.95;;
47147;SDS011;32900;47.498;8.738;2022-08-20T02:15:07;13.90;;;11.20;;
47147;SDS011;32900;47.498;8.738;2022-08-20T02:17:36;14.93;;;12.07;;
47147;SDS011;32900;47.498;8.738;2022-08-20T02:20:09;18.70;;;13.35;;
47147;SDS011;32900;47.498;8.738;2022-08-20T02:58:53;15.60;;;12.48;;
47147;SDS011;32900;47.498;8.738;2022-08-20T03:01:20;19.55;;;14.27;;
47147;SDS011;32900;47.498;8.738;2022-08-20T03:03:47;17.95;;;14.52;;
47147;SDS011;32900;47.498;8.738;2022-08-20T03:06:13;20.40;;;15.60;;
47147;SDS011;32900;47.498;8.738;2022-08-20T03:08:41;18.73;;;13.20;;
47147;SDS011;32900;47.498;8.738;2022-08-20T03:11:08;17.38;;;12.82;;
47147;SDS011;32900;47.498;8.738;2022-08-20T03:13:35;13.85;;;11.65;;
47147;SDS011;32900;47.498;8.738;2022-08-20T03:16:02;17.08;;;13.30;;
47147;SDS011;32900;47.498;8.738;2022-08-20T03:18:32;16.90;;;13.93;;
47147;SDS011;32900;47.498;8.738;2022-08-20T03:21:02;16.95;;;13.77;;
47147;SDS011;32900;47.498;8.738;2022-08-20T03:23:31;16.02;;;13.23;;
47147;SDS011;32900;47.498;8.738;2022-08-20T03:26:01;17.20;;;13.75;;
47147;SDS011;32900;47.498;8.738;2022-08-20T03:28:30;19.50;;;14.35;;
47147;SDS011;32900;47.498;8.738;2022-08-20T03:30:57;18.20;;;13.77;;
47147;SDS011;32900;47.498;8.738;2022-08-20T03:33:25;20.73;;;14.70;;
47147;SDS011;32900;47.498;8.738;2022-08-20T03:35:52;16.48;;;13.45;;
47147;SDS011;32900;47.498;8.738;2022-08-20T03:38:20;18.60;;;13.95;;
47147;SDS011;32900;47.498;8.738;2022-08-20T03:40:58;16.75;;;14.55;;
47147;SDS011;32900;47.498;8.738;2022-08-20T03:43:26;18.98;;;14.93;;
47147;SDS011;32900;47.498;8.738;2022-08-20T03:45:53;19.30;;;14.55;;
47147;SDS011;32900;47.498;8.738;2022-08-20T03:48:20;18.70;;;14.32;;
47147;SDS011;32900;47.498;8.738;2022-08-20T03:50:48;19.48;;;14.75;;
47147;SDS011;32900;47.498;8.738;2022-08-20T03:53:15;19.33;;;13.30;;
47147;SDS011;32900;47.498;8.738;2022-08-20T03:55:43;17.60;;;12.40;;
47147;SDS011;32900;47.498;8.738;2022-08-20T03:58:20;13.57;;;11.20;;
47147;SDS011;32900;47.498;8.738;2022-08-20T04:01:02;13.87;;;11.03;;
47147;SDS011;32900;47.498;8.738;2022-08-20T04:03:31;15.98;;;11.07;;
47147;SDS011;32900;47.498;8.738;2022-08-20T04:05:58;15.40;;;11.40;;
47147;SDS011;32900;47.498;8.738;2022-08-20T04:08:25;13.07;;;10.40;;
47147;SDS011;32900;47.498;8.738;2022-08-20T04:10:55;12.70;;;10.40;;
47147;SDS011;32900;47.498;8.738;2022-08-20T04:13:23;15.25;;;11.25;;
47147;SDS011;32900;47.498;8.738;2022-08-20T04:15:50;14.63;;;11.90;;
47147;SDS011;32900;47.498;8.738;2022-08-20T04:18:21;15.15;;;11.45;;
47147;SDS011;32900;47.498;8.738;2022-08-20T04:20:49;15.18;;;11.63;;
47147;SDS011;32900;47.498;8.738;2022-08-20T04:23:17;16.27;;;10.60;;
47147;SDS011;32900;47.498;8.738;2022-08-20T04:25:44;15.43;;;12.57;;
47147;SDS011;32900;47.498;8.738;2022-08-20T04:28:18;14.07;;;11.77;;
47147;SDS011;32900;47.498;8.738;2022-08-20T04:30:52;16.40;;;12.20;;
47147;SDS011;32900;47.498;8.738;2022-08-20T04:33:20;17.45;;;11.90;;
47147;SDS011;32900;47.498;8.738;2022-08-20T04:36:00;16.30;;;11.85;;
47147;SDS011;32900;47.498;8.738;2022-08-20T04:38:28;14.43;;;11.30;;
47147;SDS011;32900;47.498;8.738;2022-08-20T04:41:15;18.58;;;12.50;;
47147;SDS011;32900;47.498;8.738;2022-08-20T04:43:49;15.82;;;12.35;;
47147;SDS011;32900;47.498;8.738;2022-08-20T04:46:20;15.30;;;12.35;;
47147;SDS011;32900;47.498;8.738;2022-08-20T04:48:48;16.75;;;12.27;;
47147;SDS011;32900;47.498;8.738;2022-08-20T04:51:16;14.77;;;11.85;;
47147;SDS011;32900;47.498;8.738;2022-08-20T04:53:43;15.23;;;12.27;;
47147;SDS011;32900;47.498;8.738;2022-08-20T04:56:19;13.35;;;11.25;;
47147;SDS011;32900;47.498;8.738;2022-08-20T04:58:49;15.23;;;11.25;;
47147;SDS011;32900;47.498;8.738;2022-08-20T05:01:17;13.45;;;11.10;;
47147;SDS011;32900;47.498;8.738;2022-08-20T05:03:45;15.82;;;11.55;;
47147;SDS011;32900;47.498;8.738;2022-08-20T05:06:14;17.38;;;11.23;;
47147;SDS011;32900;47.498;8.738;2022-08-20T05:08:43;12.73;;;10.77;;
47147;SDS011;32900;47.498;8.738;2022-08-20T05:11:10;25.05;;;12.90;;
47147;SDS011;32900;47.498;8.738;2022-08-20T05:13:57;16.90;;;13.25;;
47147;SDS011;32900;47.498;8.738;2022-08-20T05:16:23;15.85;;;12.07;;
47147;SDS011;32900;47.498;8.738;2022-08-20T05:18:50;14.45;;;11.85;;
47147;SDS011;32900;47.498;8.738;2022-08-20T05:21:18;13.95;;;10.88;;
47147;SDS011;32900;47.498;8.738;2022-08-20T05:23:46;15.40;;;12.65;;
47147;SDS011;32900;47.498;8.738;2022-08-20T05:26:14;15.30;;;11.52;;
47147;SDS011;32900;47.498;8.738;2022-08-20T05:28:41;14.65;;;11.50;;
47147;SDS011;32900;47.498;8.738;2022-08-20T05:31:23;14.00;;;11.52;;
47147;SDS011;32900;47.498;8.738;2022-08-20T05:33:59;16.35;;;12.38;;
47147;SDS011;32900;47.498;8.738;2022-08-20T05:36:45;16.00;;;11.35;;
47147;SDS011;32900;47.498;8.738;2022-08-20T05:39:15;14.35;;;11.13;;
47147;SDS011;32900;47.498;8.738;2022-08-20T05:41:43;14.20;;;10.35;;
47147;SDS011;32900;47.498;8.738;2022-08-20T05:44:10;13.73;;;11.23;;
47147;SDS011;32900;47.498;8.738;2022-08-20T05:46:39;14.32;;;10.88;;
47147;SDS011;32900;47.498;8.738;2022-08-20T05:49:11;12.23;;;10.48;;
47147;SDS011;32900;47.498;8.738;2022-08-20T05:51:41;14.13;;;10.82;;
47147;SDS011;32900;47.498;8.738;2022-08-20T05:54:08;13.05;;;10.18;;
47147;SDS011;32900;47.498;8.738;2022-08-20T05:56:36;14.35;;;11.07;;
47147;SDS011;32900;47.498;8.738;2022-08-20T05:59:03;12.18;;;9.77;;
47147;SDS011;32900;47.498;8.738;2022-08-20T06:01:32;12.48;;;10.50;;
47147;SDS011;32900;47.498;8.738;2022-08-20T06:04:00;12.82;;;10.57;;
47147;SDS011;32900;47.498;8.738;2022-08-20T06:06:46;11.35;;;9.10;;
47147;SDS011;32900;47.498;8.738;2022-08-20T06:09:14;11.82;;;9.68;;
47147;SDS011;32900;47.498;8.738;2022-08-20T06:11:57;14.18;;;10.10;;
47147;SDS011;32900;47.498;8.738;2022-08-20T06:14:26;14.82;;;11.20;;
47147;SDS011;32900;47.498;8.738;2022-08-20T06:16:53;12.73;;;9.98;;
47147;SDS011;32900;47.498;8.738;2022-08-20T06:19:23;14.20;;;11.13;;
47147;SDS011;32900;47.498;8.738;2022-08-20T06:21:52;15.35;;;12.20;;
47147;SDS011;32900;47.498;8.738;2022-08-20T06:24:19;13.05;;;11.40;;
47147;SDS011;32900;47.498;8.738;2022-08-20T06:26:46;13.38;;;11.15;;
47147;SDS011;32900;47.498;8.738;2022-08-20T06:29:14;16.52;;;11.77;;
47147;SDS011;32900;47.498;8.738;2022-08-20T06:31:41;16.70;;;12.75;;
47147;SDS011;32900;47.498;8.738;2022-08-20T06:34:07;14.68;;;11.63;;
47147;SDS011;32900;47.498;8.738;2022-08-20T06:36:34;16.92;;;12.88;;
47147;SDS011;32900;47.498;8.738;2022-08-20T06:39:01;16.42;;;12.45;;
47147;SDS011;32900;47.498;8.738;2022-08-20T06:41:28;16.52;;;12.05;;
47147;SDS011;32900;47.498;8.738;2022-08-20T06:44:02;15.40;;;12.63;;
47147;SDS011;32900;47.498;8.738;2022-08-20T06:46:29;17.13;;;12.48;;
47147;SDS011;32900;47.498;8.738;2022-08-20T06:48:57;15.98;;;12.43;;
47147;SDS011;32900;47.498;8.738;2022-08-20T06:51:24;14.02;;;11.20;;
47147;SDS011;32900;47.498;8.738;2022-08-20T06:53:51;15.93;;;12.45;;
47147;SDS011;32900;47.498;8.738;2022-08-20T06:56:17;14.60;;;11.13;;
47147;SDS011;32900;47.498;8.738;2022-08-20T06:58:44;15.48;;;11.13;;
47147;SDS011;32900;47.498;8.738;2022-08-20T07:01:11;13.70;;;9.40;;
47147;SDS011;32900;47.498;8.738;2022-08-20T07:03:39;13.02;;;10.20;;
47147;SDS011;32900;47.498;8.738;2022-08-20T07:06:21;14.05;;;10.48;;
47147;SDS011;32900;47.498;8.738;2022-08-20T07:08:51;12.77;;;10.05;;
47147;SDS011;32900;47.498;8.738;2022-08-20T07:11:18;15.63;;;9.70;;
47147;SDS011;32900;47.498;8.738;2022-08-20T07:13:52;12.82;;;9.80;;
47147;SDS011;32900;47.498;8.738;2022-08-20T07:16:21;12.98;;;9.50;;
47147;SDS011;32900;47.498;8.738;2022-08-20T07:18:47;15.02;;;9.43;;
47147;SDS011;32900;47.498;8.738;2022-08-20T07:21:14;12.63;;;9.85;;
47147;SDS011;32900;47.498;8.738;2022-08-20T07:23:42;10.50;;;8.18;;
47147;SDS011;32900;47.498;8.738;2022-08-20T07:26:09;11.40;;;8.27;;
47147;SDS011;32900;47.498;8.738;2022-08-20T07:28:36;13.15;;;8.68;;
47147;SDS011;32900;47.498;8.738;2022-08-20T07:31:02;12.35;;;8.27;;
47147;SDS011;32900;47.498;8.738;2022-08-20T07:33:48;10.63;;;8.60;;
47147;SDS011;32900;47.498;8.738;2022-08-20T07:36:15;10.25;;;7.40;;
47147;SDS011;32900;47.498;8.738;2022-08-20T07:38:43;10.05;;;7.70;;
47147;SDS011;32900;47.498;8.738;2022-08-20T07:41:12;9.73;;;7.20;;
47147;SDS011;32900;47.498;8.738;2022-08-20T07:43:40;9.60;;;7.38;;
47147;SDS011;32900;47.498;8.738;2022-08-20T07:46:12;10.82;;;7.15;;
47147;SDS011;32900;47.498;8.738;2022-08-20T07:48:47;10.43;;;7.30;;
47147;SDS011;32900;47.498;8.738;2022-08-20T07:51:16;8.30;;;6.35;;
47147;SDS011;32900;47.498;8.738;2022-08-20T07:53:45;7.85;;;5.90;;
47147;SDS011;32900;47.498;8.738;2022-08-20T07:56:14;7.57;;;5.60;;
47147;SDS011;32900;47.498;8.738;2022-08-20T07:58:47;6.78;;;5.43;;
47147;SDS011;32900;47.498;8.738;2022-08-20T08:01:20;7.53;;;5.78;;
47147;SDS011;32900;47.498;8.738;2022-08-20T08:03:51;6.22;;;5.10;;
47147;SDS011;32900;47.498;8.738;2022-08-20T08:06:18;9.27;;;5.90;;
47147;SDS011;32900;47.498;8.738;2022-08-20T08:09:06;6.72;;;4.78;;
47147;SDS011;32900;47.498;8.738;2022-08-20T08:11:36;6.65;;;5.47;;
47147;SDS011;32900;47.498;8.738;2022-08-20T08:14:08;6.88;;;5.13;;
47147;SDS011;32900;47.498;8.738;2022-08-20T08:16:37;5.13;;;3.90;;
47147;SDS011;32900;47.498;8.738;2022-08-20T08:19:05;5.60;;;3.20;;
47147;SDS011;32900;47.498;8.738;2022-08-20T08:21:34;4.88;;;3.42;;
47147;SDS011;32900;47.498;8.738;2022-08-20T08:24:01;6.03;;;3.55;;
47147;SDS011;32900;47.498;8.738;2022-08-20T08:26:28;4.90;;;2.90;;
47147;SDS011;32900;47.498;8.738;2022-08-20T08:28:55;4.57;;;2.90;;
47147;SDS011;32900;47.498;8.738;2022-08-20T08:31:23;6.70;;;3.30;;
47147;SDS011;32900;47.498;8.738;2022-08-20T08:33:51;5.15;;;3.30;;
47147;SDS011;32900;47.498;8.738;2022-08-20T08:36:17;5.10;;;3.17;;
47147;SDS011;32900;47.498;8.738;2022-08-20T08:38:44;5.28;;;3.72;;
47147;SDS011;32900;47.498;8.738;2022-08-20T08:43:47;4.32;;;2.45;;
47147;SDS011;32900;47.498;8.738;2022-08-20T08:48:48;4.30;;;2.88;;
47147;SDS011;32900;47.498;8.738;2022-08-20T08:51:21;4.88;;;2.70;;
47147;SDS011;32900;47.498;8.738;2022-08-20T08:53:55;3.92;;;2.70;;
47147;SDS011;32900;47.498;8.738;2022-08-20T08:56:23;4.50;;;2.65;;
47147;SDS011;32900;47.498;8.738;2022-08-20T08:58:52;5.13;;;2.30;;
47147;SDS011;32900;47.498;8.738;2022-08-20T09:01:21;4.00;;;2.90;;
47147;SDS011;32900;47.498;8.738;2022-08-20T09:04:09;4.47;;;2.50;;
47147;SDS011;32900;47.498;8.738;2022-08-20T09:06:41;4.82;;;2.85;;
47147;SDS011;32900;47.498;8.738;2022-08-20T09:09:21;3.63;;;2.35;;
47147;SDS011;32900;47.498;8.738;2022-08-20T09:11:55;4.78;;;3.05;;
47147;SDS011;32900;47.498;8.738;2022-08-20T09:14:28;5.65;;;3.60;;
47147;SDS011;32900;47.498;8.738;2022-08-20T09:16:55;5.10;;;3.50;;
47147;SDS011;32900;47.498;8.738;2022-08-20T09:19:21;5.35;;;3.65;;
47147;SDS011;32900;47.498;8.738;2022-08-20T09:21:48;5.80;;;3.85;;
47147;SDS011;32900;47.498;8.738;2022-08-20T09:24:15;5.40;;;3.75;;
47147;SDS011;32900;47.498;8.738;2022-08-20T09:26:42;5.75;;;3.55;;
47147;SDS011;32900;47.498;8.738;2022-08-20T09:29:09;5.88;;;3.88;;
47147;SDS011;32900;47.498;8.738;2022-08-20T09:31:36;7.93;;;4.25;;
47147;SDS011;32900;47.498;8.738;2022-08-20T09:34:04;5.90;;;4.10;;
47147;SDS011;32900;47.498;8.738;2022-08-20T09:36:31;6.00;;;3.67;;
47147;SDS011;32900;47.498;8.738;2022-08-20T09:38:58;5.80;;;3.78;;
47147;SDS011;32900;47.498;8.738;2022-08-20T09:41:28;8.32;;;4.40;;
47147;SDS011;32900;47.498;8.738;2022-08-20T09:43:55;10.65;;;4.75;;
47147;SDS011;32900;47.498;8.738;2022-08-20T09:46:21;9.57;;;4.22;;
47147;SDS011;32900;47.498;8.738;2022-08-20T09:48:52;9.77;;;4.13;;
47147;SDS011;32900;47.498;8.738;2022-08-20T09:51:19;9.15;;;4.00;;
47147;SDS011;32900;47.498;8.738;2022-08-20T09:53:47;7.00;;;3.63;;
47147;SDS011;32900;47.498;8.738;2022-08-20T09:56:14;6.35;;;3.75;;
47147;SDS011;32900;47.498;8.738;2022-08-20T09:58:48;7.57;;;3.85;;
47147;SDS011;32900;47.498;8.738;2022-08-20T10:01:18;6.82;;;3.63;;
47147;SDS011;32900;47.498;8.738;2022-08-20T10:03:46;6.72;;;4.35;;
47147;SDS011;32900;47.498;8.738;2022-08-20T10:06:14;7.30;;;4.53;;
47147;SDS011;32900;47.498;8.738;2022-08-20T10:08:43;6.72;;;3.83;;
47147;SDS011;32900;47.498;8.738;2022-08-20T10:11:10;7.32;;;4.60;;
47147;SDS011;32900;47.498;8.738;2022-08-20T10:13:36;6.00;;;4.50;;
47147;SDS011;32900;47.498;8.738;2022-08-20T10:16:03;7.60;;;4.75;;
47147;SDS011;32900;47.498;8.738;2022-08-20T10:18:30;9.35;;;5.00;;
47147;SDS011;32900;47.498;8.738;2022-08-20T10:20:57;6.80;;;4.95;;
47147;SDS011;32900;47.498;8.738;2022-08-20T10:23:24;6.60;;;4.30;;
47147;SDS011;32900;47.498;8.738;2022-08-20T10:25:51;7.75;;;4.75;;
47147;SDS011;32900;47.498;8.738;2022-08-20T10:28:18;5.82;;;3.80;;
47147;SDS011;32900;47.498;8.738;2022-08-20T10:30:44;5.93;;;3.75;;
47147;SDS011;32900;47.498;8.738;2022-08-20T10:33:12;5.47;;;2.80;;
47147;SDS011;32900;47.498;8.738;2022-08-20T10:35:38;3.95;;;2.75;;
47147;SDS011;32900;47.498;8.738;2022-08-20T10:38:05;4.32;;;2.38;;
47147;SDS011;32900;47.498;8.738;2022-08-20T10:40:32;3.55;;;2.15;;
47147;SDS011;32900;47.498;8.738;2022-08-20T10:42:58;27.30;;;5.13;;
47147;SDS011;32900;47.498;8.738;2022-08-20T10:45:25;6.50;;;2.53;;
47147;SDS011;32900;47.498;8.738;2022-08-20T10:47:52;4.40;;;2.50;;
47147;SDS011;32900;47.498;8.738;2022-08-20T10:50:19;4.45;;;2.90;;
47147;SDS011;32900;47.498;8.738;2022-08-20T10:52:45;3.75;;;1.90;;
47147;SDS011;32900;47.498;8.738;2022-08-20T10:55:12;3.00;;;1.95;;
47147;SDS011;32900;47.498;8.738;2022-08-20T10:57:40;3.22;;;1.88;;
47147;SDS011;32900;47.498;8.738;2022-08-20T11:00:09;3.78;;;1.70;;
47147;SDS011;32900;47.498;8.738;2022-08-20T11:02:41;2.28;;;1.38;;
47147;SDS011;32900;47.498;8.738;2022-08-20T11:05:08;3.42;;;1.60;;
47147;SDS011;32900;47.498;8.738;2022-08-20T11:07:36;1.00;;;0.80;;
47147;SDS011;32900;47.498;8.738;2022-08-20T11:10:25;2.75;;;1.00;;
47147;SDS011;32900;47.498;8.738;2022-08-20T11:12:54;2.75;;;1.20;;
47147;SDS011;32900;47.498;8.738;2022-08-20T11:15:21;1.27;;;0.95;;
47147;SDS011;32900;47.498;8.738;2022-08-20T11:17:48;2.80;;;1.40;;
47147;SDS011;32900;47.498;8.738;2022-08-20T11:20:16;1.70;;;1.05;;
47147;SDS011;32900;47.498;8.738;2022-08-20T11:22:44;3.65;;;0.70;;
47147;SDS011;32900;47.498;8.738;2022-08-20T11:25:11;2.47;;;0.63;;
47147;SDS011;32900;47.498;8.738;2022-08-20T11:27:40;2.70;;;0.90;;
47147;SDS011;32900;47.498;8.738;2022-08-20T11:30:10;2.08;;;1.10;;
47147;SDS011;32900;47.498;8.738;2022-08-20T11:32:40;1.98;;;1.10;;
47147;SDS011;32900;47.498;8.738;2022-08-20T11:35:07;2.03;;;1.10;;
47147;SDS011;32900;47.498;8.738;2022-08-20T11:37:54;2.60;;;1.30;;
47147;SDS011;32900;47.498;8.738;2022-08-20T11:40:23;1.98;;;1.10;;
47147;SDS011;32900;47.498;8.738;2022-08-20T11:42:51;3.15;;;1.42;;
47147;SDS011;32900;47.498;8.738;2022-08-20T11:45:38;2.35;;;1.23;;
47147;SDS011;32900;47.498;8.738;2022-08-20T11:48:05;2.20;;;1.30;;
47147;SDS011;32900;47.498;8.738;2022-08-20T11:50:31;2.58;;;1.23;;
47147;SDS011;32900;47.498;8.738;2022-08-20T11:52:59;2.70;;;1.40;;
47147;SDS011;32900;47.498;8.738;2022-08-20T11:55:26;3.28;;;1.70;;
47147;SDS011;32900;47.498;8.738;2022-08-20T11:57:56;2.67;;;1.65;;
47147;SDS011;32900;47.498;8.738;2022-08-20T12:00:25;2.20;;;1.42;;
47147;SDS011;32900;47.498;8.738;2022-08-20T12:02:58;3.20;;;1.83;;
47147;SDS011;32900;47.498;8.738;2022-08-20T12:05:30;2.60;;;1.60;;
47147;SDS011;32900;47.498;8.738;2022-08-20T12:07:59;3.45;;;1.80;;
47147;SDS011;32900;47.498;8.738;2022-08-20T12:10:26;4.65;;;1.80;;
47147;SDS011;32900;47.498;8.738;2022-08-20T12:12:53;2.78;;;1.80;;
47147;SDS011;32900;47.498;8.738;2022-08-20T12:15:22;3.30;;;2.10;;
47147;SDS011;32900;47.498;8.738;2022-08-20T12:17:49;2.50;;;1.60;;
47147;SDS011;32900;47.498;8.738;2022-08-20T12:20:16;3.40;;;2.00;;
47147;SDS011;32900;47.498;8.738;2022-08-20T12:22:43;2.70;;;1.67;;
47147;SDS011;32900;47.498;8.738;2022-08-20T12:25:10;3.65;;;1.92;;
47147;SDS011;32900;47.498;8.738;2022-08-20T12:27:41;4.03;;;1.80;;
47147;SDS011;32900;47.498;8.738;2022-08-20T12:30:10;3.40;;;1.90;;
47147;SDS011;32900;47.498;8.738;2022-08-20T12:32:39;4.22;;;2.00;;
47147;SDS011;32900;47.498;8.738;2022-08-20T12:35:08;2.78;;;2.00;;
47147;SDS011;32900;47.498;8.738;2022-08-20T12:37:35;2.60;;;1.90;;
47147;SDS011;32900;47.498;8.738;2022-08-20T12:40:04;4.03;;;1.90;;
47147;SDS011;32900;47.498;8.738;2022-08-20T12:42:33;3.10;;;1.77;;
47147;SDS011;32900;47.498;8.738;2022-08-20T12:45:00;3.67;;;1.95;;
47147;SDS011;32900;47.498;8.738;2022-08-20T12:47:35;2.53;;;1.73;;
47147;SDS011;32900;47.498;8.738;2022-08-20T12:50:09;2.63;;;1.67;;
47147;SDS011;32900;47.498;8.738;2022-08-20T12:52:41;3.58;;;2.10;;
47147;SDS011;32900;47.498;8.738;2022-08-20T12:55:09;3.45;;;1.58;;
47147;SDS011;32900;47.498;8.738;2022-08-20T12:57:39;2.95;;;1.90;;
47147;SDS011;32900;47.498;8.738;2022-08-20T13:00:30;3.53;;;1.85;;
47147;SDS011;32900;47.498;8.738;2022-08-20T13:03:00;2.85;;;1.70;;
47147;SDS011;32900;47.498;8.738;2022-08-20T13:05:29;2.83;;;1.85;;
47147;SDS011;32900;47.498;8.738;2022-08-20T13:07:56;2.35;;;1.50;;
47147;SDS011;32900;47.498;8.738;2022-08-20T13:10:24;2.25;;;1.60;;
47147;SDS011;32900;47.498;8.738;2022-08-20T13:12:53;4.00;;;1.85;;
47147;SDS011;32900;47.498;8.738;2022-08-20T13:15:21;3.65;;;1.70;;
47147;SDS011;32900;47.498;8.738;2022-08-20T13:17:55;2.30;;;1.40;;
47147;SDS011;32900;47.498;8.738;2022-08-20T13:20:24;3.40;;;1.65;;
47147;SDS011;32900;47.498;8.738;2022-08-20T13:23:00;2.15;;;1.40;;
47147;SDS011;32900;47.498;8.738;2022-08-20T13:25:28;2.50;;;1.60;;
47147;SDS011;32900;47.498;8.738;2022-08-20T13:27:55;2.33;;;1.30;;
47147;SDS011;32900;47.498;8.738;2022-08-20T13:30:24;3.00;;;1.50;;
47147;SDS011;32900;47.498;8.738;2022-08-20T13:32:51;2.47;;;1.33;;
47147;SDS011;32900;47.498;8.738;2022-08-20T13:35:18;2.92;;;1.30;;
47147;SDS011;32900;47.498;8.738;2022-08-20T13:37:46;2.92;;;1.40;;
47147;SDS011;32900;47.498;8.738;2022-08-20T13:40:13;2.97;;;1.40;;
47147;SDS011;32900;47.498;8.738;2022-08-20T13:42:40;2.20;;;1.20;;
47147;SDS011;32900;47.498;8.738;2022-08-20T13:45:07;2.00;;;1.30;;
47147;SDS011;32900;47.498;8.738;2022-08-20T13:47:35;2.22;;;1.20;;
47147;SDS011;32900;47.498;8.738;2022-08-20T13:50:04;1.67;;;1.25;;
47147;SDS011;32900;47.498;8.738;2022-08-20T13:52:37;2.00;;;1.20;;
47147;SDS011;32900;47.498;8.738;2022-08-20T13:55:08;2.00;;;1.10;;
47147;SDS011;32900;47.498;8.738;2022-08-20T13:57:37;2.20;;;1.38;;
47147;SDS011;32900;47.498;8.738;2022-08-20T14:00:05;2.70;;;1.30;;
47147;SDS011;32900;47.498;8.738;2022-08-20T14:02:36;2.40;;;1.38;;
47147;SDS011;32900;47.498;8.738;2022-08-20T14:05:03;2.22;;;1.20;;
47147;SDS011;32900;47.498;8.738;2022-08-20T14:07:30;2.70;;;1.40;;
47147;SDS011;32900;47.498;8.738;2022-08-20T14:10:09;2.85;;;1.38;;
47147;SDS011;32900;47.498;8.738;2022-08-20T14:12:39;3.00;;;1.25;;
47147;SDS011;32900;47.498;8.738;2022-08-20T14:15:06;2.67;;;1.77;;
47147;SDS011;32900;47.498;8.738;2022-08-20T14:17:35;2.60;;;1.52;;
47147;SDS011;32900;47.498;8.738;2022-08-20T14:22:34;3.67;;;1.90;;
47147;SDS011;32900;47.498;8.738;2022-08-20T14:25:03;2.83;;;1.70;;
47147;SDS011;32900;47.498;8.738;2022-08-20T14:27:31;3.47;;;1.52;;
47147;SDS011;32900;47.498;8.738;2022-08-20T14:30:00;2.97;;;1.63;;
47147;SDS011;32900;47.498;8.738;2022-08-20T14:32:33;3.63;;;1.80;;
47147;SDS011;32900;47.498;8.738;2022-08-20T14:35:02;3.03;;;1.30;;
47147;SDS011;32900;47.498;8.738;2022-08-20T14:37:33;2.80;;;1.40;;
47147;SDS011;32900;47.498;8.738;2022-08-20T14:40:04;2.40;;;1.70;;
47147;SDS011;32900;47.498;8.738;2022-08-20T14:42:33;2.42;;;1.50;;
47147;SDS011;32900;47.498;8.738;2022-08-20T14:45:00;2.28;;;1.60;;
47147;SDS011;32900;47.498;8.738;2022-08-20T14:47:29;2.25;;;1.30;;
47147;SDS011;32900;47.498;8.738;2022-08-20T14:49:58;2.42;;;1.23;;
47147;SDS011;32900;47.498;8.738;2022-08-20T14:52:32;2.60;;;1.42;;
47147;SDS011;32900;47.498;8.738;2022-08-20T14:55:03;2.95;;;1.30;;
47147;SDS011;32900;47.498;8.738;2022-08-20T14:57:31;2.33;;;1.40;;
47147;SDS011;32900;47.498;8.738;2022-08-20T14:59:59;1.42;;;0.90;;
47147;SDS011;32900;47.498;8.738;2022-08-20T15:02:26;2.25;;;1.10;;
47147;SDS011;32900;47.498;8.738;2022-08-20T15:04:53;1.23;;;0.90;;
47147;SDS011;32900;47.498;8.738;2022-08-20T15:09:47;2.50;;;1.00;;
47147;SDS011;32900;47.498;8.738;2022-08-20T15:12:14;2.10;;;1.27;;
47147;SDS011;32900;47.498;8.738;2022-08-20T15:14:41;4.43;;;1.10;;
47147;SDS011;32900;47.498;8.738;2022-08-20T15:17:19;2.28;;;1.13;;
47147;SDS011;32900;47.498;8.738;2022-08-20T15:19:48;3.20;;;1.30;;
47147;SDS011;32900;47.498;8.738;2022-08-20T15:22:16;3.00;;;1.20;;
47147;SDS011;32900;47.498;8.738;2022-08-20T15:24:43;2.42;;;1.02;;
47147;SDS011;32900;47.498;8.738;2022-08-20T15:27:20;2.08;;;1.00;;
47147;SDS011;32900;47.498;8.738;2022-08-20T15:29:49;1.60;;;0.90;;
47147;SDS011;32900;47.498;8.738;2022-08-20T15:32:16;2.33;;;1.42;;
47147;SDS011;32900;47.498;8.738;2022-08-20T15:34:43;2.58;;;1.25;;
47147;SDS011;32900;47.498;8.738;2022-08-20T15:37:18;1.98;;;1.20;;
47147;SDS011;32900;47.498;8.738;2022-08-20T15:39:46;2.40;;;1.25;;
47147;SDS011;32900;47.498;8.738;2022-08-20T15:42:14;2.45;;;1.42;;